createdAt,value
2022-12-29T00:01:58.463Z,102812.91
2022-12-29T00:07:06.568Z,102822.38
2022-12-29T00:12:11.612Z,102818.13
2022-12-29T00:17:16.672Z,102825.03
2022-12-29T00:22:41.833Z,102814.72
2022-12-29T00:28:07.263Z,102820.78
2022-12-29T00:33:36.521Z,102825.97
2022-12-29T00:39:06.026Z,102821.72
2022-12-29T00:44:12.273Z,102808.81
2022-12-29T00:49:32.942Z,102820.03
2022-12-29T00:54:40.668Z,102816.59
2022-12-29T00:59:45.894Z,102844.97
2022-12-29T01:04:53.465Z,102821.81
2022-12-29T01:10:13.629Z,102863.91
2022-12-29T01:15:18.757Z,102826.06
2022-12-29T01:20:24.007Z,102832.09
2022-12-29T01:25:28.952Z,102833.81
2022-12-29T01:30:33.608Z,102828.66
2022-12-29T01:35:38.949Z,102855.28
2022-12-29T01:40:51.317Z,102864.72
2022-12-29T01:45:57.782Z,102834.59
2022-12-29T01:51:03.156Z,102833.72
2022-12-29T01:56:14.160Z,102844.84
2022-12-29T02:01:22.892Z,102844.81
2022-12-29T02:06:35.547Z,102841.28
2022-12-29T02:11:42.731Z,102841.22
2022-12-29T02:17:18.144Z,102848.06
2022-12-29T02:22:26.161Z,102842.75
2022-12-29T02:28:12.723Z,102834.09
2022-12-29T02:33:30.071Z,102875.38
2022-12-29T02:38:34.692Z,102816.66
2022-12-29T02:43:52.231Z,102801.09
2022-12-29T02:49:08.386Z,102797.53
2022-12-29T02:54:32.570Z,102809.50
2022-12-29T02:59:37.347Z,102799.97
2022-12-29T03:05:10.479Z,102781.75
2022-12-29T03:10:44.720Z,102778.94
2022-12-29T03:16:09.586Z,102764.97
2022-12-29T03:21:21.091Z,102754.53
2022-12-29T03:26:26.084Z,102746.69
2022-12-29T03:31:31.441Z,102725.84
2022-12-29T03:36:50.407Z,102720.63
2022-12-29T03:42:05.978Z,102716.09
2022-12-29T03:47:12.940Z,102705.66
2022-12-29T03:52:18.222Z,102708.13
2022-12-29T03:57:24.177Z,102692.44
2022-12-29T04:02:37.192Z,102718.25
2022-12-29T04:07:43.050Z,102657.72
2022-12-29T04:12:48.787Z,102704.06
2022-12-29T04:17:54.688Z,102651.84
2022-12-29T04:23:07.493Z,102649.94
2022-12-29T04:28:13.550Z,102631.47
2022-12-29T04:33:37.075Z,102626.03
2022-12-29T04:38:42.106Z,102619.78
2022-12-29T04:43:47.517Z,102609.13
2022-12-29T04:49:12.464Z,102612.44
2022-12-29T04:54:27.215Z,102575.25
2022-12-29T04:59:44.841Z,102570.69
2022-12-29T05:04:50.046Z,102574.81
2022-12-29T05:09:55.719Z,102567.88
2022-12-29T05:15:01.056Z,102559.84
2022-12-29T05:20:07.613Z,102558.78
2022-12-29T05:25:13.629Z,102543.16
2022-12-29T05:30:45.391Z,102532.47
2022-12-29T05:35:50.426Z,102538.28
2022-12-29T05:40:56.506Z,102538.22
2022-12-29T05:46:22.524Z,102520.66
2022-12-29T05:51:47.951Z,102530.00
2022-12-29T05:56:52.793Z,102521.28
2022-12-29T06:01:59.555Z,102514.44
2022-12-29T06:07:04.772Z,102513.44
2022-12-29T06:12:28.024Z,102511.63
2022-12-29T06:17:33.816Z,102520.44
2022-12-29T06:22:39.824Z,102518.50
2022-12-29T06:27:45.773Z,102509.66
2022-12-29T06:32:50.939Z,102507.06
2022-12-29T06:37:58.544Z,102558.28
2022-12-29T06:43:03.714Z,102516.63
2022-12-29T06:48:18.072Z,102517.50
2022-12-29T06:53:27.043Z,102510.66
2022-12-29T06:58:32.441Z,102517.50
2022-12-29T07:03:38.612Z,102509.56
2022-12-29T07:08:44.069Z,102514.22
2022-12-29T07:13:50.207Z,102565.44
2022-12-29T07:18:55.579Z,102536.28
2022-12-29T07:24:01.898Z,102539.34
2022-12-29T07:29:07.944Z,102545.91
2022-12-29T07:34:12.655Z,102549.78
2022-12-29T07:39:17.921Z,102560.59
2022-12-29T07:44:24.177Z,102537.56
2022-12-29T07:49:50.427Z,102582.03
2022-12-29T07:54:55.544Z,102546.00
2022-12-29T08:00:01.269Z,102550.56
2022-12-29T08:05:15.875Z,102559.41
2022-12-29T08:10:21.285Z,102558.75
2022-12-29T08:15:30.423Z,102564.09
2022-12-29T08:20:37.769Z,102565.13
2022-12-29T08:25:42.835Z,102563.56
2022-12-29T08:30:48.245Z,102567.22
2022-12-29T08:35:53.680Z,102564.75
2022-12-29T08:41:00.611Z,102568.38
2022-12-29T08:46:06.357Z,102584.13
2022-12-29T08:51:11.742Z,102592.06
2022-12-29T08:56:16.861Z,102588.75
2022-12-29T09:01:27.559Z,102592.41
2022-12-29T09:06:38.077Z,102597.72
2022-12-29T09:11:45.755Z,102605.66
2022-12-29T09:17:09.544Z,102625.66
2022-12-29T09:22:14.816Z,102618.84
2022-12-29T09:27:19.882Z,102630.97
2022-12-29T09:32:26.498Z,102629.38
2022-12-29T09:37:35.288Z,102631.22
2022-12-29T09:43:09.096Z,102647.72
2022-12-29T09:48:37.439Z,102649.50
2022-12-29T09:54:07.135Z,102657.31
2022-12-29T09:59:22.954Z,102655.66
2022-12-29T10:04:31.624Z,102659.19
2022-12-29T10:09:41.232Z,102673.91
2022-12-29T10:15:08.855Z,102672.22
2022-12-29T10:20:32.326Z,102674.00
2022-12-29T10:25:41.744Z,102685.25
2022-12-29T10:30:49.247Z,102706.84
2022-12-29T10:35:54.651Z,102688.81
2022-12-29T10:41:13.151Z,102707.84
2022-12-29T10:46:32.037Z,102707.03
2022-12-29T10:51:44.132Z,102710.56
2022-12-29T10:57:06.063Z,102708.06
2022-12-29T11:02:13.659Z,102717.53
2022-12-29T11:07:27.322Z,102721.88
2022-12-29T11:12:35.017Z,102727.88
2022-12-29T11:17:53.570Z,102740.00
2022-12-29T11:22:58.926Z,102740.03
2022-12-29T11:28:18.024Z,102736.63
2022-12-29T11:33:22.788Z,102751.25
2022-12-29T11:38:45.973Z,102734.97
2022-12-29T11:43:51.271Z,102736.72
2022-12-29T11:49:00.698Z,102729.84
2022-12-29T11:54:07.603Z,102729.00
2022-12-29T11:59:32.342Z,102733.28
2022-12-29T12:04:40.786Z,102775.38
2022-12-29T12:09:53.397Z,102724.69
2022-12-29T12:15:03.772Z,102723.81
2022-12-29T12:20:48.351Z,102726.34
2022-12-29T12:26:12.060Z,102732.31
2022-12-29T12:31:34.358Z,102738.28
2022-12-29T12:37:03.990Z,102743.41
2022-12-29T12:42:15.455Z,102741.66
2022-12-29T12:47:42.104Z,102749.31
2022-12-29T12:53:08.689Z,102753.56
2022-12-29T12:58:40.298Z,102753.47
2022-12-29T13:04:03.877Z,102748.25
2022-12-29T13:09:30.494Z,102753.41
2022-12-29T13:15:19.426Z,102754.19
2022-12-29T13:20:42.229Z,102752.44
2022-12-29T13:26:19.489Z,102756.69
2022-12-29T13:31:36.452Z,102757.53
2022-12-29T13:36:50.979Z,102772.06
2022-12-29T13:42:01.702Z,102765.19
2022-12-29T13:47:30.416Z,102774.53
2022-12-29T13:52:46.830Z,102781.34
2022-12-29T13:58:03.663Z,102778.72
2022-12-29T14:03:35.508Z,102795.81
2022-12-29T14:08:41.603Z,102791.50
2022-12-29T14:13:50.621Z,102797.56
2022-12-29T14:18:59.486Z,102790.69
2022-12-29T14:24:40.109Z,102794.97
2022-12-29T14:29:53.110Z,102832.63
2022-12-29T14:35:02.504Z,102787.31
2022-12-29T14:40:28.685Z,102791.69
2022-12-29T14:45:39.928Z,102791.72
2022-12-29T14:50:46.842Z,102788.31
2022-12-29T14:55:59.955Z,102787.44
2022-12-29T15:01:06.022Z,102817.34
2022-12-29T15:06:14.302Z,102796.66
2022-12-29T15:11:25.850Z,102791.34
2022-12-29T15:16:39.244Z,102785.31
2022-12-29T15:21:47.425Z,102786.13
2022-12-29T15:26:55.718Z,102823.69
2022-12-29T15:32:04.393Z,102785.97
2022-12-29T15:37:11.243Z,102837.22
2022-12-29T15:42:27.558Z,102779.06
2022-12-29T15:47:34.809Z,102815.88
2022-12-29T15:52:44.270Z,102761.13
2022-12-29T15:57:49.180Z,102773.09
2022-12-29T16:02:56.215Z,102768.75
2022-12-29T16:08:03.892Z,102758.47
2022-12-29T16:13:42.223Z,102752.47
2022-12-29T16:18:53.423Z,102762.63
2022-12-29T16:24:07.326Z,102778.75
2022-12-29T16:29:16.418Z,102750.41
2022-12-29T16:34:49.348Z,102745.16
2022-12-29T16:39:56.370Z,102744.16
2022-12-29T16:45:12.482Z,102779.16
2022-12-29T16:50:28.605Z,102737.28
2022-12-29T16:55:34.583Z,102734.66
2022-12-29T17:00:39.766Z,102735.66
2022-12-29T17:05:44.794Z,102727.97
2022-12-29T17:11:09.726Z,102732.25
2022-12-29T17:16:14.933Z,102722.00
2022-12-29T17:21:19.494Z,102719.41
2022-12-29T17:26:24.092Z,102716.78
2022-12-29T17:31:28.788Z,102709.00
2022-12-29T17:36:33.399Z,102705.53
2022-12-29T17:41:39.854Z,102702.94
2022-12-29T17:46:44.469Z,102706.28
2022-12-29T17:51:49.557Z,102691.59
2022-12-29T17:56:54.685Z,102708.38
2022-12-29T18:02:00.279Z,102704.84
2022-12-29T18:07:12.347Z,102697.97
2022-12-29T18:12:32.047Z,102751.81
2022-12-29T18:17:36.577Z,102725.41
2022-12-29T18:22:41.173Z,102706.63
2022-12-29T18:27:45.748Z,102746.00
2022-12-29T18:32:50.274Z,102703.34
2022-12-29T18:37:54.889Z,102716.72
2022-12-29T18:43:01.265Z,102719.94
2022-12-29T18:48:06.027Z,102711.22
2022-12-29T18:53:21.894Z,102697.50
2022-12-29T18:58:33.773Z,102711.13
2022-12-29T19:03:38.924Z,102703.34
2022-12-29T19:08:43.889Z,102705.00
2022-12-29T19:13:48.437Z,102699.09
2022-12-29T19:19:08.820Z,102691.50
2022-12-29T19:24:14.293Z,102682.16
2022-12-29T19:29:19.149Z,102677.00
2022-12-29T19:34:23.686Z,102680.31
2022-12-29T19:39:30.020Z,102664.00
2022-12-29T19:44:34.607Z,102652.84
2022-12-29T19:49:39.487Z,102662.16
2022-12-29T19:54:44.954Z,102638.22
2022-12-29T19:59:50.236Z,102646.69
2022-12-29T20:04:55.124Z,102638.13
2022-12-29T20:10:00.728Z,102647.38
2022-12-29T20:15:06.974Z,102643.09
2022-12-29T20:20:13.063Z,102633.69
2022-12-29T20:30:42.306Z,102616.47
2022-12-29T20:35:46.939Z,102618.16
2022-12-29T20:40:51.883Z,102619.88
2022-12-29T20:45:56.483Z,102616.63
2022-12-29T20:51:01.807Z,102607.19
2022-12-29T20:56:26.990Z,102602.94
2022-12-29T21:01:31.795Z,102602.66
2022-12-29T21:06:37.281Z,102612.53
2022-12-29T21:11:41.861Z,102608.00
2022-12-29T21:16:47.510Z,102600.09
2022-12-29T21:21:52.740Z,102593.09
2022-12-29T21:26:57.332Z,102596.50
2022-12-29T21:32:06.819Z,102619.41
2022-12-29T21:37:11.632Z,102594.69
2022-12-29T21:42:16.322Z,102590.47
2022-12-29T21:47:20.901Z,102600.66
2022-12-29T21:52:25.480Z,102592.13
2022-12-29T21:57:48.029Z,102588.84
2022-12-29T22:03:16.646Z,102588.91
2022-12-29T22:08:43.237Z,102665.72
2022-12-29T22:13:47.777Z,102597.56
2022-12-29T22:18:53.989Z,102596.56
2022-12-29T22:23:58.527Z,102599.03
2022-12-29T22:29:03.062Z,102607.34
2022-12-29T22:34:07.732Z,102604.56
2022-12-29T22:39:12.341Z,102596.78
2022-12-29T22:44:16.906Z,102609.47
2022-12-29T22:49:21.497Z,102609.38
2022-12-29T22:54:26.159Z,102609.16
2022-12-29T22:59:30.797Z,102616.63
2022-12-29T23:05:02.350Z,102622.53
2022-12-29T23:10:01.506Z,102615.56
2022-12-29T23:15:10.960Z,102647.97
2022-12-29T23:20:25.410Z,102658.22
2022-12-29T23:25:30.026Z,102609.00
2022-12-29T23:30:35.878Z,102622.66
2022-12-29T23:35:40.694Z,102632.03
2022-12-29T23:40:45.278Z,102617.72
2022-12-29T23:45:51.265Z,102612.72
2022-12-29T23:50:57.912Z,102609.34
2022-12-29T23:56:02.792Z,102607.53
